createdAt,value
2017-01-01T00:00:45.076Z,0
2017-01-01T00:01:44.322Z,0
2017-01-01T00:02:45.046Z,0
2017-01-01T00:03:44.641Z,0
2017-01-01T00:04:44.907Z,0
2017-01-01T00:05:45.100Z,0
2017-01-01T00:06:44.730Z,0
2017-01-01T00:07:44.405Z,0
2017-01-01T00:08:44.194Z,0
2017-01-01T00:09:45.427Z,0
2017-01-01T00:10:45.077Z,0
2017-01-01T00:11:45.401Z,0
2017-01-01T00:12:44.690Z,0
2017-01-01T00:13:44.635Z,0
2017-01-01T00:14:45.018Z,0
2017-01-01T00:15:44.607Z,0
2017-01-01T00:16:44.943Z,0
2017-01-01T00:17:44.565Z,0
2017-01-01T00:18:45.422Z,0
2017-01-01T00:19:44.599Z,0
2017-01-01T00:20:44.669Z,0
2017-01-01T00:21:45.788Z,0
2017-01-01T00:22:45.300Z,0
2017-01-01T00:23:44.774Z,0
2017-01-01T00:24:45.150Z,0
2017-01-01T00:25:44.690Z,0
2017-01-01T00:26:45.018Z,0
2017-01-01T00:27:46.098Z,0
2017-01-01T00:28:44.737Z,0
2017-01-01T00:29:45.435Z,0
2017-01-01T00:30:44.983Z,0
2017-01-01T00:31:44.801Z,0
2017-01-01T00:32:45.202Z,0
2017-01-01T00:33:44.358Z,0
2017-01-01T00:34:45.218Z,0
2017-01-01T00:35:44.594Z,0
2017-01-01T00:36:46.236Z,0
2017-01-01T00:37:44.225Z,0
2017-01-01T00:38:44.879Z,0
2017-01-01T00:39:45.330Z,0
2017-01-01T00:40:44.591Z,0
2017-01-01T00:41:44.588Z,0
2017-01-01T00:42:44.981Z,0
2017-01-01T00:43:45.148Z,0
2017-01-01T00:44:44.946Z,0
2017-01-01T00:45:45.107Z,0
2017-01-01T00:46:46.010Z,0
2017-01-01T00:47:44.872Z,0
2017-01-01T00:48:46.020Z,0
2017-01-01T00:49:46.101Z,0
2017-01-01T00:50:45.559Z,0
2017-01-01T00:51:45.037Z,0
2017-01-01T00:52:45.325Z,0
2017-01-01T00:53:45.839Z,0
2017-01-01T00:54:45.212Z,0
2017-01-01T00:55:44.717Z,0
2017-01-01T00:56:45.579Z,0
2017-01-01T00:57:45.402Z,0
2017-01-01T00:58:45.184Z,0
2017-01-01T00:59:45.515Z,0
2017-01-01T01:00:46.118Z,0
2017-01-01T01:01:45.590Z,0
2017-01-01T01:02:46.019Z,0
2017-01-01T01:03:45.292Z,0
2017-01-01T01:04:46.665Z,0
2017-01-01T01:05:45.068Z,0
2017-01-01T01:06:45.216Z,0
2017-01-01T01:07:44.848Z,0
2017-01-01T01:08:45.496Z,0
2017-01-01T01:09:45.685Z,0
2017-01-01T01:10:45.559Z,0
2017-01-01T01:11:45.830Z,0
2017-01-01T01:12:45.277Z,0
2017-01-01T01:13:45.862Z,0
2017-01-01T01:14:45.383Z,0
2017-01-01T01:15:45.418Z,0
2017-01-01T01:16:45.490Z,0
2017-01-01T01:17:45.732Z,0
2017-01-01T01:18:45.672Z,0
2017-01-01T01:19:45.419Z,0
2017-01-01T01:20:46.226Z,0
2017-01-01T01:21:45.608Z,0
2017-01-01T01:22:45.910Z,0
2017-01-01T01:23:45.622Z,0
2017-01-01T01:24:45.933Z,0
2017-01-01T01:25:44.878Z,0
2017-01-01T01:26:44.990Z,0
2017-01-01T01:27:45.289Z,0
2017-01-01T01:28:44.724Z,0
2017-01-01T01:29:45.242Z,0
2017-01-01T01:30:45.633Z,0
2017-01-01T01:31:45.364Z,0
2017-01-01T01:32:45.943Z,0
2017-01-01T01:33:45.348Z,0
2017-01-01T01:34:45.168Z,0
2017-01-01T01:35:45.581Z,0
2017-01-01T01:36:45.349Z,0
2017-01-01T01:37:44.942Z,0
2017-01-01T01:38:45.586Z,0
2017-01-01T01:39:46.071Z,0
2017-01-01T01:40:45.462Z,0
2017-01-01T01:41:45.260Z,0
2017-01-01T01:42:46.084Z,0
2017-01-01T01:43:45.540Z,0
2017-01-01T01:44:46.383Z,0
2017-01-01T01:45:45.461Z,0
2017-01-01T01:46:46.476Z,0
2017-01-01T01:47:46.580Z,0
2017-01-01T01:48:45.820Z,0
2017-01-01T01:49:45.632Z,0
2017-01-01T01:50:46.577Z,0
2017-01-01T01:51:45.882Z,0
2017-01-01T01:52:46.406Z,0
2017-01-01T01:53:45.439Z,0
2017-01-01T01:54:45.695Z,0
2017-01-01T01:55:45.494Z,0
2017-01-01T01:56:45.929Z,0
2017-01-01T01:57:45.975Z,0
2017-01-01T01:58:45.993Z,0
2017-01-01T01:59:45.494Z,0
2017-01-01T02:00:45.438Z,0
2017-01-01T02:01:45.541Z,0
2017-01-01T02:02:45.523Z,0
2017-01-01T02:03:46.712Z,0
2017-01-01T02:04:46.845Z,0
2017-01-01T02:05:45.403Z,0
2017-01-01T02:06:45.566Z,0
2017-01-01T02:07:45.736Z,0
2017-01-01T02:08:45.365Z,0
2017-01-01T02:09:46.312Z,0
2017-01-01T02:10:45.455Z,0
2017-01-01T02:11:46.078Z,0
2017-01-01T02:12:45.899Z,0
2017-01-01T02:13:45.248Z,0
2017-01-01T02:14:46.091Z,0
2017-01-01T02:15:45.931Z,0
2017-01-01T02:16:46.324Z,0
2017-01-01T02:17:46.268Z,0
2017-01-01T02:18:46.016Z,0
2017-01-01T02:19:46.161Z,0
2017-01-01T02:20:46.645Z,0
2017-01-01T02:21:46.657Z,0
2017-01-01T02:22:46.700Z,0
2017-01-01T02:23:46.221Z,0
2017-01-01T02:24:46.452Z,0
2017-01-01T02:25:46.512Z,0
2017-01-01T02:26:45.991Z,0
2017-01-01T02:27:46.184Z,0
2017-01-01T02:28:45.725Z,0
2017-01-01T02:29:45.966Z,0
2017-01-01T02:30:46.137Z,0
2017-01-01T02:31:45.795Z,0
2017-01-01T02:32:46.733Z,0
2017-01-01T02:33:47.036Z,0
2017-01-01T02:34:46.156Z,0
2017-01-01T02:35:46.052Z,0
2017-01-01T02:36:47.242Z,0
2017-01-01T02:37:46.593Z,0
2017-01-01T02:38:45.698Z,0
2017-01-01T02:39:45.924Z,0
2017-01-01T02:40:46.497Z,0
2017-01-01T02:41:46.462Z,0
2017-01-01T02:42:46.677Z,0
2017-01-01T02:43:46.137Z,0
2017-01-01T02:44:46.460Z,0
2017-01-01T02:45:47.411Z,0
2017-01-01T02:46:45.791Z,0
2017-01-01T02:47:45.500Z,0
2017-01-01T02:48:46.768Z,0
2017-01-01T02:49:46.426Z,0
2017-01-01T02:50:46.501Z,0
2017-01-01T02:51:46.461Z,0
2017-01-01T02:52:45.825Z,0
2017-01-01T02:53:46.817Z,0
2017-01-01T02:54:45.833Z,0
2017-01-01T02:55:46.291Z,0
2017-01-01T02:56:46.585Z,0
2017-01-01T02:57:46.044Z,0
2017-01-01T02:58:46.549Z,0
2017-01-01T02:59:46.243Z,0
2017-01-01T03:00:46.622Z,0
2017-01-01T03:01:45.702Z,0
2017-01-01T03:02:46.369Z,0
2017-01-01T03:03:45.848Z,0
2017-01-01T03:04:45.814Z,0
2017-01-01T03:05:46.944Z,0
2017-01-01T03:06:47.627Z,0
2017-01-01T03:07:46.514Z,0
2017-01-01T03:08:46.712Z,0
2017-01-01T03:09:47.543Z,0
2017-01-01T03:10:47.357Z,0
2017-01-01T03:11:45.792Z,0
2017-01-01T03:12:46.625Z,0
2017-01-01T03:13:46.174Z,0
2017-01-01T03:14:46.321Z,0
2017-01-01T03:15:46.285Z,0
2017-01-01T03:16:47.050Z,0
2017-01-01T03:17:47.469Z,0
2017-01-01T03:18:46.561Z,0
2017-01-01T03:19:46.683Z,0
2017-01-01T03:20:46.127Z,0
2017-01-01T03:21:47.594Z,0
2017-01-01T03:22:47.120Z,0
2017-01-01T03:23:46.187Z,0
2017-01-01T03:24:47.149Z,0
2017-01-01T03:25:46.820Z,0
2017-01-01T03:26:46.863Z,0
2017-01-01T03:27:46.179Z,0
2017-01-01T03:28:47.080Z,0
2017-01-01T03:29:47.123Z,0
2017-01-01T03:30:46.756Z,0
2017-01-01T03:31:46.396Z,0
2017-01-01T03:32:47.113Z,0
2017-01-01T03:33:46.872Z,0
2017-01-01T03:34:47.267Z,0
2017-01-01T03:35:46.840Z,0
2017-01-01T03:36:46.830Z,0
2017-01-01T03:37:46.995Z,0
2017-01-01T03:38:47.167Z,0
2017-01-01T03:39:46.621Z,0
2017-01-01T03:40:47.729Z,0
2017-01-01T03:41:47.351Z,0
2017-01-01T03:42:46.779Z,0
2017-01-01T03:43:46.383Z,0
2017-01-01T03:44:46.834Z,0
2017-01-01T03:45:46.478Z,0
2017-01-01T03:46:46.703Z,0
2017-01-01T03:47:46.723Z,0
2017-01-01T03:48:47.369Z,0
2017-01-01T03:49:47.529Z,0
2017-01-01T03:50:46.904Z,0
2017-01-01T03:51:46.856Z,0
2017-01-01T03:52:46.901Z,0
2017-01-01T03:53:46.760Z,0
2017-01-01T03:54:47.366Z,0
2017-01-01T03:55:48.128Z,0
2017-01-01T03:56:47.408Z,0
2017-01-01T03:57:46.625Z,0
2017-01-01T03:58:47.466Z,0
2017-01-01T03:59:46.894Z,0
2017-01-01T04:00:46.628Z,0
2017-01-01T04:01:47.598Z,0
2017-01-01T04:02:46.733Z,0
2017-01-01T04:03:46.425Z,0
2017-01-01T04:04:46.727Z,0
2017-01-01T04:05:46.738Z,0
2017-01-01T04:06:48.307Z,0
2017-01-01T04:07:46.773Z,0
2017-01-01T04:08:47.538Z,0
2017-01-01T04:09:47.721Z,0
2017-01-01T04:10:46.812Z,0
2017-01-01T04:11:46.706Z,0
2017-01-01T04:12:46.990Z,0
2017-01-01T04:13:47.087Z,0
2017-01-01T04:14:47.078Z,0
2017-01-01T04:15:47.094Z,0
2017-01-01T04:16:47.209Z,0
2017-01-01T04:17:47.945Z,0
2017-01-01T04:18:46.979Z,0
2017-01-01T04:19:47.605Z,0
2017-01-01T04:20:47.205Z,0
2017-01-01T04:21:46.998Z,0
2017-01-01T04:22:46.948Z,0
2017-01-01T04:23:48.181Z,0
2017-01-01T04:24:48.140Z,0
2017-01-01T04:25:46.929Z,0
2017-01-01T04:26:46.845Z,0
2017-01-01T04:27:47.044Z,0
2017-01-01T04:28:47.265Z,0
2017-01-01T04:29:47.468Z,0
2017-01-01T04:30:47.101Z,0
2017-01-01T04:31:48.425Z,0
2017-01-01T04:32:47.267Z,0
2017-01-01T04:33:47.976Z,0
2017-01-01T04:34:47.059Z,0
2017-01-01T04:35:47.621Z,0
2017-01-01T04:36:47.655Z,0
2017-01-01T04:37:47.047Z,0
2017-01-01T04:38:47.311Z,0
2017-01-01T04:39:47.216Z,0
2017-01-01T04:40:46.825Z,0
2017-01-01T04:41:47.967Z,0
2017-01-01T04:42:48.063Z,0
2017-01-01T04:43:47.700Z,0
2017-01-01T04:44:47.136Z,0
2017-01-01T04:45:46.894Z,0
2017-01-01T04:46:47.188Z,0
2017-01-01T04:47:47.589Z,0
2017-01-01T04:48:47.317Z,0
2017-01-01T04:49:47.842Z,0
2017-01-01T04:50:47.142Z,0
2017-01-01T04:51:47.759Z,0
2017-01-01T04:52:47.888Z,0
2017-01-01T04:53:47.595Z,0
2017-01-01T04:54:48.253Z,0
2017-01-01T04:55:47.330Z,0
2017-01-01T04:56:47.572Z,0
2017-01-01T04:57:47.541Z,0
2017-01-01T04:58:47.323Z,0
2017-01-01T04:59:47.304Z,0
2017-01-01T05:00:47.382Z,0
2017-01-01T05:01:47.392Z,0
2017-01-01T05:02:47.697Z,0
2017-01-01T05:03:47.491Z,0
2017-01-01T05:04:47.544Z,0
2017-01-01T05:05:47.215Z,0
2017-01-01T05:06:47.284Z,0
2017-01-01T05:07:48.092Z,0
2017-01-01T05:08:48.002Z,0
2017-01-01T05:09:47.712Z,0
2017-01-01T05:10:47.587Z,0
2017-01-01T05:11:48.043Z,0
2017-01-01T05:12:47.432Z,0
2017-01-01T05:13:47.604Z,0
2017-01-01T05:14:47.818Z,0
2017-01-01T05:15:47.303Z,0
2017-01-01T05:16:47.496Z,0
2017-01-01T05:17:47.873Z,0
2017-01-01T05:18:47.298Z,0
2017-01-01T05:19:47.480Z,0
2017-01-01T05:20:47.484Z,0
2017-01-01T05:21:48.035Z,0
2017-01-01T05:22:48.405Z,0
2017-01-01T05:23:48.359Z,0
2017-01-01T05:24:48.424Z,0
2017-01-01T05:25:47.572Z,0
2017-01-01T05:26:47.424Z,0
2017-01-01T05:27:47.539Z,0
2017-01-01T05:28:47.865Z,0
2017-01-01T05:29:48.368Z,0
2017-01-01T05:30:47.973Z,0
2017-01-01T05:31:47.671Z,0
2017-01-01T05:32:48.234Z,0
2017-01-01T05:33:48.335Z,0
2017-01-01T05:34:47.933Z,0
2017-01-01T05:35:48.218Z,0
2017-01-01T05:36:47.848Z,0
2017-01-01T05:37:48.797Z,0
2017-01-01T05:38:47.280Z,0
2017-01-01T05:39:47.522Z,0
2017-01-01T05:40:49.063Z,0
2017-01-01T05:41:48.826Z,0
2017-01-01T05:42:48.214Z,0
2017-01-01T05:43:48.077Z,0
2017-01-01T05:44:47.191Z,0
2017-01-01T05:45:47.582Z,0
2017-01-01T05:46:48.776Z,0
2017-01-01T05:47:48.012Z,0
2017-01-01T05:48:48.265Z,0
2017-01-01T05:49:47.650Z,0
2017-01-01T05:50:48.526Z,0
2017-01-01T05:51:49.544Z,0
2017-01-01T05:52:48.424Z,0
2017-01-01T05:53:47.970Z,0
2017-01-01T05:54:49.125Z,0
2017-01-01T05:55:47.932Z,0
2017-01-01T05:56:47.983Z,0
2017-01-01T05:57:55.396Z,0
2017-01-01T05:58:55.562Z,0
2017-01-01T05:59:54.110Z,0
2017-01-01T06:00:52.194Z,0
2017-01-01T06:01:50.719Z,0
2017-01-01T06:02:51.004Z,0
2017-01-01T06:03:50.548Z,0
2017-01-01T06:04:54.664Z,0
2017-01-01T06:05:51.415Z,0
2017-01-01T06:06:50.670Z,0
2017-01-01T06:07:52.675Z,0
2017-01-01T06:08:54.519Z,0
2017-01-01T06:09:52.800Z,0
2017-01-01T06:10:53.424Z,0
2017-01-01T06:11:53.376Z,0
2017-01-01T06:12:52.382Z,0
2017-01-01T06:13:52.000Z,0
2017-01-01T06:14:50.899Z,0
2017-01-01T06:15:52.543Z,0
2017-01-01T06:16:50.950Z,0
2017-01-01T06:17:52.441Z,0
2017-01-01T06:18:54.834Z,0
2017-01-01T06:19:50.932Z,0
2017-01-01T06:20:51.347Z,0
2017-01-01T06:21:53.084Z,0
2017-01-01T06:22:52.033Z,0
2017-01-01T06:23:55.062Z,0
2017-01-01T06:24:53.185Z,0
2017-01-01T06:25:53.214Z,0
2017-01-01T06:26:51.492Z,0
2017-01-01T06:27:52.183Z,0
2017-01-01T06:28:52.072Z,0
2017-01-01T06:29:52.405Z,0
2017-01-01T06:30:53.616Z,0
2017-01-01T06:31:52.632Z,0
2017-01-01T06:32:53.470Z,0
2017-01-01T06:33:54.140Z,0
2017-01-01T06:34:50.385Z,0
2017-01-01T06:35:52.643Z,0
2017-01-01T06:36:55.651Z,0
2017-01-01T06:37:52.309Z,0
2017-01-01T06:38:54.020Z,0
2017-01-01T06:39:55.213Z,0
2017-01-01T06:40:55.129Z,0
2017-01-01T06:41:52.825Z,0
2017-01-01T06:42:53.223Z,0
2017-01-01T06:44:48.155Z,0
2017-01-01T06:45:50.410Z,0
2017-01-01T06:46:50.807Z,0
2017-01-01T06:47:50.139Z,4
2017-01-01T06:48:49.501Z,0
2017-01-01T06:49:51.601Z,0
2017-01-01T06:50:50.544Z,4
2017-01-01T06:51:51.768Z,0
2017-01-01T06:52:51.394Z,4
2017-01-01T06:53:50.562Z,4
2017-01-01T06:54:50.874Z,4
2017-01-01T06:55:52.154Z,4
2017-01-01T06:56:51.087Z,8
2017-01-01T06:58:51.648Z,8
2017-01-01T06:59:51.980Z,12
2017-01-01T07:00:52.176Z,8
2017-01-01T07:01:57.061Z,12
2017-01-01T07:02:52.066Z,16
2017-01-01T07:03:49.609Z,20
2017-01-01T07:04:51.310Z,20
2017-01-01T07:05:51.034Z,20
2017-01-01T07:06:54.926Z,28
2017-01-01T07:07:51.662Z,32
2017-01-01T07:08:56.007Z,36
2017-01-01T07:09:54.827Z,40
2017-01-01T07:10:50.265Z,52
2017-01-01T07:11:51.378Z,56
2017-01-01T07:12:54.022Z,64
2017-01-01T07:13:52.799Z,72
2017-01-01T07:14:49.968Z,76
2017-01-01T07:15:51.788Z,84
2017-01-01T07:17:50.901Z,104
2017-01-01T07:18:53.995Z,120
2017-01-01T07:19:51.909Z,132
2017-01-01T07:20:55.467Z,144
2017-01-01T07:21:55.909Z,152
2017-01-01T07:22:51.877Z,160
2017-01-01T07:23:56.240Z,168
2017-01-01T07:24:51.021Z,176
2017-01-01T07:25:52.096Z,184
2017-01-01T07:26:51.911Z,196
2017-01-01T07:27:50.721Z,212
2017-01-01T07:28:50.329Z,224
2017-01-01T07:29:51.758Z,236
2017-01-01T07:30:53.552Z,248
2017-01-01T07:31:52.400Z,260
2017-01-01T07:32:53.639Z,272
2017-01-01T07:33:52.039Z,284
2017-01-01T07:34:51.811Z,300
2017-01-01T07:35:49.833Z,320
2017-01-01T07:36:51.135Z,344
2017-01-01T07:37:50.210Z,372
2017-01-01T07:38:50.011Z,404
2017-01-01T07:39:50.641Z,424
2017-01-01T07:40:49.863Z,448
2017-01-01T07:41:50.982Z,476
2017-01-01T07:42:49.645Z,484
2017-01-01T07:43:50.521Z,476
2017-01-01T07:44:49.816Z,476
2017-01-01T07:45:50.049Z,508
2017-01-01T07:46:49.220Z,548
2017-01-01T07:47:51.130Z,568
2017-01-01T07:48:48.699Z,584
2017-01-01T07:49:49.464Z,612
2017-01-01T07:50:50.106Z,660
2017-01-01T07:51:49.092Z,720
2017-01-01T07:52:49.082Z,756
2017-01-01T07:53:49.439Z,788
2017-01-01T07:54:49.434Z,812
2017-01-01T07:55:48.953Z,828
2017-01-01T07:56:49.927Z,852
2017-01-01T07:57:49.436Z,892
2017-01-01T07:58:49.427Z,932
2017-01-01T07:59:49.882Z,968
2017-01-01T08:00:49.352Z,976
2017-01-01T08:01:49.857Z,968
2017-01-01T08:02:49.606Z,956
2017-01-01T08:03:49.131Z,976
2017-01-01T08:04:49.831Z,1004
2017-01-01T08:05:48.590Z,1036
2017-01-01T08:06:49.886Z,1056
2017-01-01T08:07:49.654Z,1076
2017-01-01T08:08:49.528Z,1112
2017-01-01T08:09:49.578Z,1156
2017-01-01T08:10:49.055Z,1200
2017-01-01T08:11:49.909Z,1240
2017-01-01T08:12:49.330Z,1268
2017-01-01T08:13:49.845Z,1304
2017-01-01T08:14:49.089Z,1360
2017-01-01T08:15:49.361Z,1424
2017-01-01T08:16:48.832Z,1464
2017-01-01T08:17:49.234Z,1472
2017-01-01T08:18:50.019Z,1500
2017-01-01T08:19:49.217Z,1536
2017-01-01T08:20:50.639Z,1528
2017-01-01T08:21:49.852Z,1476
2017-01-01T08:22:49.389Z,1464
2017-01-01T08:23:49.677Z,1496
2017-01-01T08:24:49.359Z,1544
2017-01-01T08:25:49.703Z,1572
2017-01-01T08:26:50.056Z,1568
2017-01-01T08:27:49.338Z,1568
2017-01-01T08:28:50.274Z,1584
2017-01-01T08:29:50.902Z,1596
2017-01-01T08:30:49.154Z,1608
2017-01-01T08:31:50.179Z,1608
2017-01-01T08:32:49.842Z,1616
2017-01-01T08:33:49.986Z,1688
2017-01-01T08:34:49.010Z,1788
2017-01-01T08:35:49.831Z,1856
2017-01-01T08:36:49.820Z,1864
2017-01-01T08:37:49.816Z,1816
2017-01-01T08:38:50.252Z,1752
2017-01-01T08:39:50.066Z,1768
2017-01-01T08:40:49.685Z,1836
2017-01-01T08:41:49.551Z,1984
2017-01-01T08:42:49.777Z,2124
2017-01-01T08:43:50.105Z,2200
2017-01-01T08:44:50.072Z,2348
2017-01-01T08:45:50.534Z,2408
2017-01-01T08:46:49.320Z,2520
2017-01-01T08:47:49.127Z,2664
2017-01-01T08:48:49.626Z,2748
2017-01-01T08:49:49.279Z,2708
2017-01-01T08:50:49.473Z,2592
2017-01-01T08:51:50.149Z,2612
2017-01-01T08:52:50.470Z,2640
2017-01-01T08:53:49.797Z,2748
2017-01-01T08:54:49.774Z,2816
2017-01-01T08:55:50.410Z,2824
2017-01-01T08:56:49.746Z,2668
2017-01-01T08:57:50.179Z,2508
2017-01-01T08:58:49.357Z,2484
2017-01-01T08:59:49.933Z,2468
2017-01-01T09:00:49.626Z,2404
2017-01-01T09:01:50.261Z,2364
2017-01-01T09:02:50.365Z,2388
2017-01-01T09:03:49.556Z,2516
2017-01-01T09:04:50.938Z,2616
2017-01-01T09:05:50.327Z,2604
2017-01-01T09:06:50.043Z,2608
2017-01-01T09:07:50.601Z,2636
2017-01-01T09:08:49.285Z,2652
2017-01-01T09:10:49.831Z,2488
2017-01-01T09:11:50.289Z,2452
2017-01-01T09:12:51.241Z,2428
2017-01-01T09:13:50.252Z,2420
2017-01-01T09:14:50.236Z,2404
2017-01-01T09:15:50.461Z,2348
2017-01-01T09:16:49.746Z,2268
2017-01-01T09:17:50.184Z,2196
2017-01-01T09:18:50.712Z,2224
2017-01-01T09:19:49.913Z,2244
2017-01-01T09:20:50.157Z,2288
2017-01-01T09:21:50.055Z,2316
2017-01-01T09:22:50.867Z,2392
2017-01-01T09:23:50.718Z,2500
2017-01-01T09:24:49.862Z,2592
2017-01-01T09:25:49.540Z,2700
2017-01-01T09:26:50.358Z,2724
2017-01-01T09:27:49.852Z,2664
2017-01-01T09:28:49.915Z,2604
2017-01-01T09:29:50.472Z,2612
2017-01-01T09:30:50.048Z,2684
2017-01-01T09:31:51.591Z,2748
2017-01-01T09:32:50.395Z,2724
2017-01-01T09:33:50.775Z,2744
2017-01-01T09:34:50.175Z,2812
2017-01-01T09:35:51.315Z,2892
2017-01-01T09:36:50.493Z,2964
2017-01-01T09:37:51.687Z,3084
2017-01-01T09:38:49.792Z,3272
2017-01-01T09:39:51.251Z,3472
2017-01-01T09:40:50.502Z,3632
2017-01-01T09:41:50.284Z,3816
2017-01-01T09:42:49.702Z,4012
2017-01-01T09:43:50.911Z,4060
2017-01-01T09:44:50.463Z,4056
2017-01-01T09:45:50.622Z,4092
2017-01-01T09:46:50.630Z,4208
2017-01-01T09:47:50.475Z,4296
2017-01-01T09:48:51.238Z,4148
2017-01-01T09:49:51.065Z,4020
2017-01-01T09:50:50.572Z,4080
2017-01-01T09:51:51.647Z,4188
2017-01-01T09:52:50.832Z,4264
2017-01-01T09:53:50.995Z,4572
2017-01-01T09:54:50.680Z,5244
2017-01-01T09:55:50.016Z,5512
2017-01-01T09:56:50.555Z,5064
2017-01-01T09:57:50.366Z,4680
2017-01-01T09:58:50.458Z,4564
2017-01-01T09:59:50.635Z,4612
2017-01-01T10:00:50.852Z,4512
2017-01-01T10:01:50.912Z,4580
2017-01-01T10:02:50.873Z,4652
2017-01-01T10:03:50.617Z,4800
2017-01-01T10:04:50.004Z,4984
2017-01-01T10:05:51.178Z,5064
2017-01-01T10:06:50.541Z,5000
2017-01-01T10:07:51.480Z,4984
2017-01-01T10:08:52.102Z,5016
2017-01-01T10:09:53.025Z,5288
2017-01-01T10:10:51.001Z,5552
2017-01-01T10:11:52.625Z,6160
2017-01-01T10:12:51.195Z,6600
2017-01-01T10:13:52.351Z,6716
2017-01-01T10:14:51.317Z,7248
2017-01-01T10:15:51.413Z,7648
2017-01-01T10:16:51.263Z,8172
2017-01-01T10:17:52.952Z,8764
2017-01-01T10:18:52.578Z,9264
2017-01-01T10:19:52.348Z,9588
2017-01-01T10:20:51.158Z,10296
2017-01-01T10:21:52.341Z,10344
2017-01-01T10:22:51.461Z,9424
2017-01-01T10:23:51.366Z,8568
2017-01-01T10:24:52.204Z,8420
2017-01-01T10:25:52.532Z,8228
2017-01-01T10:26:51.978Z,8224
2017-01-01T10:27:51.932Z,8000
2017-01-01T10:28:52.669Z,7528
2017-01-01T10:29:51.748Z,7136
2017-01-01T10:30:51.429Z,6928
2017-01-01T10:31:51.553Z,6652
2017-01-01T10:32:51.989Z,6308
2017-01-01T10:33:51.990Z,6124
2017-01-01T10:34:51.310Z,6596
2017-01-01T10:35:52.191Z,6596
2017-01-01T10:36:51.918Z,6504
2017-01-01T10:37:52.027Z,6020
2017-01-01T10:38:51.893Z,6700
2017-01-01T10:39:50.877Z,8068
2017-01-01T10:40:52.323Z,7368
2017-01-01T10:41:51.439Z,6956
2017-01-01T10:42:52.536Z,6652
2017-01-01T10:43:52.050Z,7316
2017-01-01T10:44:50.987Z,6856
2017-01-01T10:45:51.663Z,6832
2017-01-01T10:46:51.658Z,6084
2017-01-01T10:47:51.723Z,6132
2017-01-01T10:48:53.270Z,6760
2017-01-01T10:49:52.757Z,6500
2017-01-01T10:50:53.938Z,6536
2017-01-01T10:51:52.445Z,7244
2017-01-01T10:52:51.098Z,7468
2017-01-01T10:53:52.774Z,7444
2017-01-01T10:54:52.116Z,7252
2017-01-01T10:55:53.986Z,8488
2017-01-01T10:56:53.649Z,8976
2017-01-01T10:57:53.644Z,8248
2017-01-01T10:58:53.862Z,7696
2017-01-01T10:59:53.933Z,6940
2017-01-01T11:00:51.869Z,6716
2017-01-01T11:01:54.040Z,6364
2017-01-01T11:02:52.831Z,7284
2017-01-01T11:03:53.421Z,7228
2017-01-01T11:04:54.620Z,8020
2017-01-01T11:05:53.129Z,7468
2017-01-01T11:06:51.645Z,7800
2017-01-01T11:07:51.631Z,9100
2017-01-01T11:08:51.759Z,8016
2017-01-01T11:09:52.080Z,6692
2017-01-01T11:10:51.076Z,6944
2017-01-01T11:11:51.277Z,6044
2017-01-01T11:12:51.268Z,7668
2017-01-01T11:13:51.379Z,6284
2017-01-01T11:14:50.814Z,5780
2017-01-01T11:15:52.066Z,8668
2017-01-01T11:16:52.296Z,9424
2017-01-01T11:17:50.871Z,7852
2017-01-01T11:18:50.998Z,6840
2017-01-01T11:19:51.256Z,7200
2017-01-01T11:20:51.088Z,7324
2017-01-01T11:21:50.852Z,7488
2017-01-01T11:22:51.355Z,8072
2017-01-01T11:23:51.825Z,7460
2017-01-01T11:24:51.347Z,7388
2017-01-01T11:25:50.808Z,7108
2017-01-01T11:26:52.260Z,8004
2017-01-01T11:27:51.419Z,6832
2017-01-01T11:28:51.571Z,6236
2017-01-01T11:29:51.601Z,6564
2017-01-01T11:30:52.243Z,6864
2017-01-01T11:31:51.675Z,7580
2017-01-01T11:32:51.718Z,6528
2017-01-01T11:33:52.140Z,6400
2017-01-01T11:34:51.843Z,6868
2017-01-01T11:35:51.482Z,5964
2017-01-01T11:36:52.034Z,6484
2017-01-01T11:37:51.980Z,6828
2017-01-01T11:38:51.869Z,6860
2017-01-01T11:39:51.481Z,6980
2017-01-01T11:40:51.788Z,6524
2017-01-01T11:41:51.923Z,6236
2017-01-01T11:42:51.815Z,6488
2017-01-01T11:43:51.951Z,7136
2017-01-01T11:44:51.538Z,7096
2017-01-01T11:45:51.381Z,6812
2017-01-01T11:46:52.118Z,6436
2017-01-01T11:47:51.357Z,6580
2017-01-01T11:48:52.268Z,6460
2017-01-01T11:49:52.958Z,6880
2017-01-01T11:50:51.077Z,6572
2017-01-01T11:51:52.539Z,6800
2017-01-01T11:52:51.472Z,7540
2017-01-01T11:53:52.181Z,6952
2017-01-01T11:54:51.541Z,7360
2017-01-01T11:55:51.303Z,6968
2017-01-01T11:56:52.129Z,7492
2017-01-01T11:57:51.436Z,7632
2017-01-01T11:58:52.201Z,7416
2017-01-01T11:59:51.962Z,7984
2017-01-01T12:00:51.545Z,6704
2017-01-01T12:01:51.749Z,6876
2017-01-01T12:02:51.812Z,6200
2017-01-01T12:03:51.780Z,6612
2017-01-01T12:04:51.746Z,6172
2017-01-01T12:05:51.924Z,6940
2017-01-01T12:06:51.395Z,7032
2017-01-01T12:07:51.905Z,6136
2017-01-01T12:08:52.147Z,6508
2017-01-01T12:09:51.340Z,6444
2017-01-01T12:10:52.328Z,6528
2017-01-01T12:11:51.668Z,7368
2017-01-01T12:12:51.868Z,6208
2017-01-01T12:13:52.082Z,6456
2017-01-01T12:14:52.011Z,6408
2017-01-01T12:15:52.960Z,6664
2017-01-01T12:16:52.199Z,7192
2017-01-01T12:17:52.737Z,6516
2017-01-01T12:18:52.279Z,6460
2017-01-01T12:19:53.627Z,6452
2017-01-01T12:20:52.222Z,6148
2017-01-01T12:21:52.198Z,6640
2017-01-01T12:22:52.822Z,7904
2017-01-01T12:23:52.551Z,7612
2017-01-01T12:24:52.723Z,7184
2017-01-01T12:25:52.493Z,6796
2017-01-01T12:26:54.131Z,7156
2017-01-01T12:27:52.992Z,7216
2017-01-01T12:28:52.079Z,7936
2017-01-01T12:29:52.737Z,7756
2017-01-01T12:30:52.496Z,7468
2017-01-01T12:31:51.840Z,8040
2017-01-01T12:32:51.938Z,7252
2017-01-01T12:33:52.080Z,6844
2017-01-01T12:34:52.491Z,7532
2017-01-01T12:35:52.244Z,7292
2017-01-01T12:36:52.340Z,6964
2017-01-01T12:37:52.215Z,6676
2017-01-01T12:38:51.845Z,6284
2017-01-01T12:39:53.590Z,5420
2017-01-01T12:40:52.614Z,5824
2017-01-01T12:41:52.842Z,6340
2017-01-01T12:42:51.928Z,5836
2017-01-01T12:43:52.540Z,5608
2017-01-01T12:44:52.231Z,5976
2017-01-01T12:45:52.268Z,5552
2017-01-01T12:46:53.327Z,5512
2017-01-01T12:47:51.794Z,6512
2017-01-01T12:48:52.343Z,6824
2017-01-01T12:49:52.415Z,6244
2017-01-01T12:50:53.541Z,8060
2017-01-01T12:51:51.947Z,8408
2017-01-01T12:52:51.871Z,8204
2017-01-01T12:53:51.974Z,7084
2017-01-01T12:54:52.044Z,7476
2017-01-01T12:55:52.860Z,7820
2017-01-01T12:56:52.994Z,6848
2017-01-01T12:57:51.910Z,6080
2017-01-01T12:58:52.200Z,5684
2017-01-01T12:59:52.418Z,5360
2017-01-01T13:00:52.938Z,5980
2017-01-01T13:01:52.710Z,5900
2017-01-01T13:02:52.550Z,6516
2017-01-01T13:03:52.382Z,6168
2017-01-01T13:04:52.596Z,5924
2017-01-01T13:05:52.329Z,6336
2017-01-01T13:06:52.486Z,6532
2017-01-01T13:07:51.918Z,7316
2017-01-01T13:08:53.339Z,7940
2017-01-01T13:09:52.668Z,7828
2017-01-01T13:10:52.158Z,7584
2017-01-01T13:11:52.825Z,7752
2017-01-01T13:12:52.818Z,7036
2017-01-01T13:13:53.100Z,6880
2017-01-01T13:14:52.227Z,5676
2017-01-01T13:15:53.367Z,5980
2017-01-01T13:16:53.550Z,5688
2017-01-01T13:17:52.816Z,5308
2017-01-01T13:18:52.676Z,5824
2017-01-01T13:19:52.803Z,5892
2017-01-01T13:20:52.342Z,5584
2017-01-01T13:21:53.175Z,4580
2017-01-01T13:22:52.542Z,4236
2017-01-01T13:23:52.519Z,4020
2017-01-01T13:24:52.586Z,3820
2017-01-01T13:25:53.086Z,3776
2017-01-01T13:26:52.654Z,4032
2017-01-01T13:27:53.017Z,4500
2017-01-01T13:28:52.284Z,4008
2017-01-01T13:29:53.339Z,3964
2017-01-01T13:30:53.316Z,3920
2017-01-01T13:31:53.244Z,4220
2017-01-01T13:32:52.606Z,4248
2017-01-01T13:33:52.447Z,4808
2017-01-01T13:34:52.968Z,5132
2017-01-01T13:35:54.114Z,4504
2017-01-01T13:36:52.732Z,4596
2017-01-01T13:37:53.024Z,4712
2017-01-01T13:38:53.545Z,4184
2017-01-01T13:39:53.294Z,3928
2017-01-01T13:40:52.807Z,4116
2017-01-01T13:41:52.500Z,4136
2017-01-01T13:42:52.519Z,4256
2017-01-01T13:43:53.078Z,4272
2017-01-01T13:44:53.358Z,3916
2017-01-01T13:45:53.058Z,3716
2017-01-01T13:46:52.576Z,3944
2017-01-01T13:47:53.216Z,4276
2017-01-01T13:48:53.961Z,4056
2017-01-01T13:49:53.463Z,3888
2017-01-01T13:50:53.660Z,3892
2017-01-01T13:51:53.282Z,3792
2017-01-01T13:52:52.947Z,4104
2017-01-01T13:53:54.333Z,4280
2017-01-01T13:54:53.040Z,4084
2017-01-01T13:55:53.411Z,4184
2017-01-01T13:56:53.714Z,3732
2017-01-01T13:57:54.951Z,3664
2017-01-01T13:58:53.287Z,3696
2017-01-01T13:59:53.895Z,3428
2017-01-01T14:00:54.329Z,3364
2017-01-01T14:01:53.237Z,3548
2017-01-01T14:02:52.889Z,3240
2017-01-01T14:03:53.275Z,3076
2017-01-01T14:04:52.938Z,3004
2017-01-01T14:05:53.511Z,3016
2017-01-01T14:06:53.289Z,3084